• Join FlightAware (Why Join?)
  • Login
  • US Flag 
01:22PM EST


 

Airport Tracker/Info


-or-


 

Live Flight TrackerFlight Track Log ✈ ASQ4117 ✈ 10-Oct-2013 ✈ CYYZ - KIAH

Flight Track Log - Related Links

Times and Time Zones

All times are in EDT time to prevent confusion due to time zone crossing. See the ASQ4117 flight status page for this flight to view local times or setup timezone preferences in your user account.

Time Position Orientation Groundspeed Altitude Reporting Facility
EDT Latitude Longitude Course Direction KTS MPH feet Rate Location/Type
01:35PM 43.6833 -79.5333 233° Southwest 190 219 2,000  Level Toronto Center
01:36PM 43.7333 -79.5000 26° Northeast 200 230 4,300 1,680 Climbing Toronto Center
01:38PM 43.3884 -80.0641 231° Southwest  Level Estimated
01:38PM 43.6167 -79.4000 148° Southeast 250 288 7,100  Level Toronto Center
01:39PM 43.2928 -80.1294 206° Southwest  Level FlightAware Approximate
01:39PM 43.5500 -79.4000 180° South 260 299 9,300  Level Toronto Center
01:40PM 43.2205 -80.2371 233° Southwest  Level Estimated
01:40PM 43.5000 -79.4667 224° Southwest 280 322 11,000  Level Toronto Center
01:41PM 43.4500 -79.5833 239° Southwest 320 368 11,700 840 Climbing Toronto Center
01:42PM 43.3833 -79.7000 232° Southwest 360 414 12,800 1,200 Climbing Toronto Center
01:43PM 43.3167 -79.8167 232° Southwest 370 426 14,200 1,260 Climbing Toronto Center
01:44PM 43.2500 -79.9000 222° Southwest 380 437 15,300 1,020 Climbing Toronto Center
01:45PM 43.1833 -80.0500 239° Southwest 390 449 16,300 1,020 Climbing Toronto Center
01:46PM 43.1167 -80.1667 232° Southwest 400 460 17,400 840 Climbing Toronto Center
01:47PM 43.0500 -80.2667 228° Southwest 410 472 18,100 840 Climbing Toronto Center
01:48PM 42.9833 -80.4000 236° Southwest 410 472 19,100 960 Climbing Toronto Center
01:49PM 42.9000 -80.5167 226° Southwest 420 483 20,100 960 Climbing Toronto Center
01:50PM 42.8642 -80.6200 245° Southwest 418 481 20,700 780 Climbing Cleveland Center
01:51PM 42.7881 -80.7456 230° Southwest 427 491 21,500 780 Climbing Cleveland Center
01:52PM 42.7119 -80.8733 231° Southwest 432 497 22,400 900 Climbing Cleveland Center
01:53PM 42.6158 -80.9717 217° Southwest 427 491 23,400 960 Climbing Cleveland Center
01:54PM 42.5194 -81.0678 216° Southwest 426 490 24,500 1,020 Climbing Cleveland Center
01:55PM 42.4219 -81.2028 226° Southwest 425 489 25,600 960 Climbing Cleveland Center
01:56PM 42.3400 -81.3167 226° Southwest 422 486 26,600 960 Climbing Cleveland Center
01:57PM 42.2592 -81.4292 226° Southwest 416 479 27,600 960 Climbing Cleveland Center
01:58PM 42.1783 -81.5397 225° Southwest 412 474 28,600 960 Climbing Cleveland Center
01:59PM 42.0992 -81.6494 226° Southwest 407 468 29,600 960 Climbing Cleveland Center
02:00PM 42.0206 -81.7567 225° Southwest 403 464 30,600 960 Climbing Cleveland Center
02:01PM 41.9422 -81.8650 226° Southwest 402 463 31,600 660 Climbing Cleveland Center
02:02PM 41.8508 -81.9897 225° Southwest 401 461 32,000 480 Climbing Cleveland Center
02:03PM 41.7672 -82.1028 225° Southwest 420 483 32,600 900 Climbing Cleveland Center
02:04PM 41.6900 -82.2069 225° Southwest 417 480 33,900 1,140 Climbing Cleveland Center
02:05PM 41.6081 -82.3175 225° Southwest 400 460 35,000 480 Climbing Cleveland Center
02:06PM 41.5286 -82.4239 225° Southwest 401 461 35,000  Level Cleveland Center
02:07PM 41.4453 -82.5353 225° Southwest 417 480 35,000  Level Cleveland Center
02:08PM 41.3458 -82.6686 225° Southwest 431 496 35,000  Level Cleveland Center
02:09PM 41.2569 -82.7861 225° Southwest 443 510 35,000  Level Cleveland Center
02:10PM 41.1678 -82.9025 225° Southwest 448 516 35,000  Level Cleveland Center
02:11PM 41.0858 -83.0314 230° Southwest 451 519 35,100 480 Climbing Cleveland Center
02:12PM 41.0036 -83.1667 231° Southwest 445 512 36,000 420 Climbing Cleveland Center
02:13PM 40.9261 -83.2894 230° Southwest 439 505 36,000  Level Cleveland Center
02:14PM 40.8475 -83.4153 230° Southwest 443 510 36,000  Level Cleveland Center
02:15PM 40.7683 -83.5408 230° Southwest 448 516 36,000  Level Cleveland Center
02:16PM 40.6739 -83.6942 231° Southwest 451 519 36,000  Level Cleveland Center
02:17PM 40.5933 -83.8203 230° Southwest 452 520 36,000  Level Cleveland Center
02:19PM 40.5131 -83.9486 231° Southwest 457 526 36,000  Level Cleveland Center
02:20PM 40.4322 -84.0736 230° Southwest 453 521 36,000  Level Cleveland Center
02:21PM 40.3511 -84.2017 230° Southwest 458 527 36,000  Level Cleveland Center
02:22PM 40.2519 -84.3561 230° Southwest 463 533 36,000  Level Cleveland Center
02:23PM 40.1714 -84.4814 230° Southwest 455 524 36,000  Level Cleveland Center
02:24PM 40.0875 -84.6100 230° Southwest 465 535 36,000  Level Cleveland Center
02:25PM 40.0050 -84.7356 229° Southwest 459 528 36,000  Level Cleveland Center
02:26PM 39.8994 -84.8928 229° Southwest 458 527 36,000  Level Indianapolis Center
02:27PM 39.8183 -85.0194 230° Southwest 457 526 36,000  Level Indianapolis Center
02:28PM 39.7375 -85.1403 229° Southwest 448 516 36,000  Level Indianapolis Center
02:29PM 39.6578 -85.2619 230° Southwest 444 511 36,000  Level Indianapolis Center
02:30PM 39.5614 -85.4064 229° Southwest 442 509 36,000  Level Indianapolis Center
02:31PM 39.4808 -85.5264 229° Southwest 440 506 36,000  Level Indianapolis Center
02:32PM 39.4011 -85.6467 229° Southwest 439 505 36,000  Level Indianapolis Center
02:33PM 39.3197 -85.7664 229° Southwest 442 509 36,000  Level Indianapolis Center
02:34PM 39.2389 -85.8872 229° Southwest 444 511 36,000  Level Indianapolis Center
02:35PM 39.1567 -86.0075 229° Southwest 444 511 36,000  Level Indianapolis Center
02:36PM 39.0750 -86.1264 229° Southwest 443 510 36,000  Level Indianapolis Center
02:37PM 38.9761 -86.2694 228° Southwest 444 511 36,000  Level Indianapolis Center
02:38PM 38.8950 -86.3897 229° Southwest 444 511 36,000  Level Indianapolis Center
02:39PM 38.8119 -86.5092 228° Southwest 443 510 36,000  Level Indianapolis Center
02:40PM 38.7300 -86.6269 228° Southwest 442 509 36,000  Level Indianapolis Center
02:41PM 38.6486 -86.7436 228° Southwest 440 506 36,000  Level Indianapolis Center
02:42PM 38.5675 -86.8597 228° Southwest 438 504 36,000  Level Indianapolis Center
02:44PM 38.4703 -86.9997 228° Southwest 440 506 36,000  Level Indianapolis Center
02:45PM 38.3903 -87.1106 227° Southwest 437 503 36,000  Level Indianapolis Center
02:46PM 38.3111 -87.2264 229° Southwest 435 501 36,000  Level Indianapolis Center
02:47PM 38.2336 -87.3358 228° Southwest 433 498 36,000  Level Indianapolis Center
02:48PM 38.1378 -87.4706 228° Southwest 429 494 36,000  Level Indianapolis Center
02:49PM 38.0572 -87.5833 228° Southwest 429 494 36,000  Level Indianapolis Center
02:50PM 37.9761 -87.6944 227° Southwest 428 493 36,000  Level Indianapolis Center
02:51PM 37.8967 -87.8069 228° Southwest 427 491 36,000  Level Indianapolis Center
02:52PM 37.8194 -87.9200 229° Southwest 426 490 36,000  Level Indianapolis Center
02:53PM 37.7369 -88.0378 228° Southwest 428 493 36,000  Level Indianapolis Center
02:54PM 37.6586 -88.1511 229° Southwest 426 490 36,000  Level Indianapolis Center
02:55PM 37.5689 -88.2800 229° Southwest 424 488 36,000  Level Indianapolis Center
02:56PM 37.4783 -88.3819 222° Southwest 425 489 36,000  Level Indianapolis Center
02:57PM 37.3864 -88.4781 220° Southwest 427 491 36,000  Level Indianapolis Center
02:58PM 37.2969 -88.5714 220° Southwest 427 491 36,000  Level Indianapolis Center
02:59PM 37.2064 -88.6675 220° Southwest 426 490 36,000  Level Indianapolis Center
03:00PM 37.1125 -88.7658 220° Southwest 424 488 36,000  Level Indianapolis Center
03:01PM 37.0106 -88.8761 221° Southwest 428 493 36,000  Level Memphis Center
03:02PM 36.9200 -88.9739 221° Southwest 428 493 36,000  Level Memphis Center
03:03PM 36.8292 -89.0661 219° Southwest 428 493 36,000  Level Memphis Center
03:04PM 36.7406 -89.1581 220° Southwest 428 493 36,000  Level Memphis Center
03:05PM 36.6478 -89.2528 219° Southwest 428 493 36,000  Level Memphis Center
03:06PM 36.5608 -89.3467 221° Southwest 428 493 36,000  Level Memphis Center
03:07PM 36.4658 -89.4436 219° Southwest 433 498 36,000  Level Memphis Center
03:08PM 36.3622 -89.5478 219° Southwest 438 504 36,000  Level Memphis Center
03:09PM 36.2711 -89.6361 218° Southwest 438 504 36,000  Level Memphis Center
03:10PM 36.1819 -89.7269 219° Southwest 438 504 36,000  Level Memphis Center
03:11PM 36.0906 -89.8175 219° Southwest 433 498 36,000  Level Memphis Center
03:12PM 36.0014 -89.9053 219° Southwest 427 491 36,000  Level Memphis Center
03:13PM 35.9100 -89.9956 219° Southwest 427 491 36,000  Level Memphis Center
03:14PM 35.8206 -90.0856 219° Southwest 427 491 36,000  Level Memphis Center
03:15PM 35.7289 -90.1756 219° Southwest 427 491 36,000  Level Memphis Center
03:16PM 35.6561 -90.2575 222° Southwest 413 475 36,000  Level Memphis Center
03:17PM 35.5642 -90.3494 219° Southwest 418 481 36,000  Level Memphis Center
03:18PM 35.4747 -90.4361 218° Southwest 423 487 36,000  Level Memphis Center
03:19PM 35.3806 -90.5303 219° Southwest 428 493 36,000  Level Memphis Center
03:20PM 35.2928 -90.6167 219° Southwest 428 493 36,000  Level Memphis Center
03:21PM 35.1989 -90.7078 218° Southwest 428 493 36,000  Level Memphis Center
03:22PM 35.1089 -90.7986 220° Southwest 428 493 36,000  Level Memphis Center
03:23PM 35.0167 -90.8869 218° Southwest 428 493 36,000  Level Memphis Center
03:24PM 34.9244 -90.9750 218° Southwest 428 493 36,000  Level Memphis Center
03:25PM 34.8239 -91.0756 219° Southwest 423 487 36,000  Level Memphis Center
03:26PM 34.7294 -91.1631 217° Southwest 429 494 36,000  Level Memphis Center
03:27PM 34.6369 -91.2531 219° Southwest 423 487 36,000  Level Memphis Center
03:28PM 34.5444 -91.3431 219° Southwest 428 493 36,000  Level Memphis Center
03:29PM 34.4542 -91.4275 218° Southwest 423 487 36,000  Level Memphis Center
03:30PM 34.3614 -91.5144 218° Southwest 428 493 36,000  Level Memphis Center
03:31PM 34.2689 -91.6064 219° Southwest 428 493 36,000  Level Memphis Center
03:32PM 34.1761 -91.6928 218° Southwest 428 493 36,000  Level Memphis Center
03:33PM 34.0939 -91.7669 217° Southwest 428 493 36,000  Level Memphis Center
03:34PM 33.9925 -91.8678 220° Southwest 428 493 36,000  Level Memphis Center
03:36PM 33.7858 -92.0606 218° Southwest 417 480 36,000  Level Fort Worth Center
03:37PM 33.6914 -92.1464 217° Southwest 428 493 36,000  Level Fort Worth Center
03:38PM 33.5992 -92.2342 218° Southwest 428 493 36,000  Level Fort Worth Center
03:39PM 33.5067 -92.3192 217° Southwest 428 493 36,000  Level Fort Worth Center
03:40PM 33.4139 -92.4042 217° Southwest 428 493 36,000  Level Fort Worth Center
03:41PM 33.2944 -92.4383 193° South 426 490 36,000  Level Fort Worth Center
03:42PM 33.1719 -92.4600 188° South 431 496 36,000  Level Fort Worth Center
03:43PM 33.0394 -92.4822 188° South 455 524 36,000  Level Fort Worth Center
03:44PM 32.9233 -92.5036 189° South 455 524 36,000  Level Fort Worth Center
03:46PM 32.7200 -92.5431 189° South 449 517 36,000  Level Houston Center
03:47PM 32.6000 -92.5628 188° South 454 522 36,000  Level Houston Center
03:48PM 32.4761 -92.5869 189° South 453 521 36,000  Level Houston Center
03:49PM 32.3261 -92.6136 189° South 454 522 36,000  Level Houston Center
03:50PM 32.2019 -92.6353 188° South 453 521 36,000  Level Houston Center
03:51PM 32.0778 -92.6600 190° South 452 520 36,000  Level Houston Center
03:52PM 31.9544 -92.6897 192° South 452 520 36,000  Level Houston Center
03:53PM 31.8647 -92.7806 221° Southwest 421 484 36,000  Level Houston Center
03:54PM 31.7744 -92.8708 220° Southwest 423 487 36,000  Level Houston Center
03:55PM 31.6636 -92.9764 219° Southwest 426 490 36,000  Level Houston Center
03:56PM 31.5722 -93.0642 219° Southwest 426 490 36,000  Level Houston Center
03:57PM 31.4806 -93.1531 220° Southwest 428 493 36,000  Level Houston Center
03:59PM 31.3894 -93.2419 220° Southwest 427 491 36,000  Level Houston Center
04:00PM 31.2961 -93.3300 219° Southwest 430 495 36,000 -780 Level Houston Center
04:01PM 31.1886 -93.4325 219° Southwest 422 486 34,400 -1,560 Descending Houston Center
04:02PM 31.0983 -93.5186 219° Southwest 420 483 32,800 -1,800 Descending Houston Center
04:03PM 31.0075 -93.6044 219° Southwest 421 484 30,800 -1,980 Descending Houston Center
04:04PM 30.9144 -93.6914 219° Southwest 427 491 28,800 -2,100 Descending Houston Center
04:05PM 30.8203 -93.7811 219° Southwest 434 499 26,500 -2,520 Descending Houston Center
04:06PM 30.7067 -93.8883 219° Southwest 440 506 23,600 -2,520 Descending Houston Center
04:07PM 30.6158 -93.9728 219° Southwest 426 490 21,300 -2,100 Descending Houston Center
04:08PM 30.5281 -94.0561 219° Southwest 415 478 19,300 -2,100 Descending Houston Center
04:08PM 30.4750 -94.1047 218° Southwest 401 461 18,000 -1,860 Descending Houston Center
04:09PM 30.4411 -94.1361 219° Southwest 404 465 17,400 -1,920 Descending Houston Center
04:10PM 30.3567 -94.2167 219° Southwest 398 458 15,200 -2,460 Descending Houston Center
04:10PM 30.3153 -94.2522 217° Southwest 395 455 14,000 -2,760 Descending Houston Center
04:11PM 30.2578 -94.3081 220° Southwest 380 437 12,400 -1,980 Descending Houston Center
04:11PM 30.2386 -94.3253 218° Southwest 356 410 12,200 -420 Descending Houston Center
04:12PM 30.1983 -94.3856 232° Southwest 335 386 12,000 -300 Descending Houston Center
04:12PM 30.1872 -94.4217 250° West 329 379 11,900  Descending Houston Center
04:13PM 30.1775 -94.4886 260° West 332 382 12,000  Climbing Houston Center
04:13PM 30.1683 -94.5306 256° West 333 383 11,900  Descending Houston Center
04:14PM 30.1606 -94.5844 261° West 330 380 12,000  Climbing Houston Center
04:14PM 30.1525 -94.6267 258° West 331 381 11,900  Descending Houston Center
04:15PM 30.1389 -94.7094 259° West 331 381 12,000  Climbing Houston Center
04:15PM 30.1319 -94.7406 256° West 332 382 11,900 -600 Descending Houston Center
04:16PM 30.1231 -94.8061 261° West 314 361 11,400 -1,200 Descending Houston Center
04:16PM 30.1156 -94.8322 252° West 286 329 10,700 -1,620 Descending Houston Center
04:17PM 30.1075 -94.8961 262° West 289 333 9,700 -1,680 Descending Houston Center
04:17PM 30.1058 -94.9275 266° West 285 328 9,000 -1,560 Descending Houston Center
04:18PM 30.1064 -94.9842 271° West 277 319 8,100 -1,680 Descending Houston Center
04:18PM 30.1050 -95.0097 266° West 272 313 7,500 -1,800 Descending Houston Center
04:19PM 30.1064 -95.0714 272° West 275 316 6,300 -1,500 Descending Houston Center
04:19PM 30.1050 -95.0992 267° West 275 316 6,000 -240 Descending Houston Center
04:20PM 30.1069 -95.1758 272° West 274 315 6,100  Climbing Houston Center
04:21PM 30.1067 -95.2639 270° West 276 318 6,100 -120 Level Houston Center
04:21PM 30.1067 -95.2753 270° West 277 319 6,000 -420 Descending Houston Center
04:22PM 30.1075 -95.3517 271° West 275 316 5,700 -720 Descending Houston Center
04:22PM 30.1072 -95.3742 269° West 269 310 5,200 -2,040 Descending Houston Center
04:23PM 30.1081 -95.4353 271° West 266 306 3,600 -1,980 Descending Houston Center
04:23PM 30.1058 -95.4517 261° West 262 302 3,400 -1,080 Descending Houston Center
04:24PM 30.0675 -95.4825 215° Southwest 255 293 2,500 -1,200 Descending Houston Center
04:25PM 30.0436 -95.4833 182° South 247 284 2,100 -900 Descending Houston Center
04:25PM 30.0083 -95.4469 138° Southeast 251 289 1,600 -600 Descending Houston Center
04:25PM 30.0086 -95.4442 83° East 181 208 1,600 -780 Level Houston Center
04:26PM 30.0078 -95.3992 91° East 185 213 800 -900 Descending Houston Center
04:26PM 30.0064 -95.3961 118° Southeast 133 153 700 -240 Descending Houston Center
04:27PM 30.0072 -95.3592 88° East 167 192 600 -120 Descending Houston Center
04:29PM 29.9833 -95.3333 126° Southeast  Level FlightAware Approximate